Time;durP1;ratioP1;P1;durP2;ratioP2;P2;SDS_P1;SDS_P2;PMS_P1;PMS_P2;Temp;Humidity;BMP_temperature;BMP_pressure;BME280_temperature;BME280_humidity;BME280_pressure;Samples;Min_cycle;Max_cycle;Signal;HPM_P1;HPM_P2
2023/10/13 00:01:42;;;;;;;;;;;;;;;17.65;100.00;100163.69;4942537;28;19936;-79
2023/10/13 00:04:08;;;;;;;;;;;;;;;17.68;100.00;100163.31;4946240;28;19923;-79
2023/10/13 00:06:33;;;;;;;;;;;;;;;17.64;100.00;100164.69;4942829;28;20387;-79
2023/10/13 00:08:59;;;;;;;;;;;;;;;17.68;100.00;100171.31;4946648;28;20017;-78
2023/10/13 00:11:26;;;;;;;;;;;;;;;17.64;100.00;100172.69;4946231;28;19929;-79
2023/10/13 00:13:53;;;;;;;;;;;;;;;17.56;100.00;100177.00;4962269;28;20020;-77
2023/10/13 00:16:21;;;;;;;;;;;;;;;17.27;100.00;100181.28;4946732;29;20331;-79
2023/10/13 00:18:48;;;;;;;;;;;;;;;17.27;100.00;100187.44;4942780;28;20014;-78
2023/10/13 00:21:13;;;;;;;;;;;;;;;17.28;100.00;100183.78;4944592;29;20363;-78
2023/10/13 00:23:52;;;;;;;;;;;;;;;17.29;100.00;100174.78;4948469;28;19966;-79
2023/10/13 00:26:18;;;;;;;;;;;;;;;17.24;100.00;100177.13;4946796;28;20406;-78
2023/10/13 00:28:53;;;;;;;;;;;;;;;17.24;100.00;100176.28;4943479;28;19927;-79
2023/10/13 00:31:21;;;;;;;;;;;;;;;17.28;100.00;100173.09;4946012;28;20426;-78
2023/10/13 00:33:47;;;;;;;;;;;;;;;17.30;100.00;100176.44;4945600;29;19927;-79
2023/10/13 00:36:19;;;;;;;;;;;;;;;17.33;100.00;100180.59;4963843;28;20379;-78
2023/10/13 00:38:48;;;;;;;;;;;;;;;17.36;100.00;100174.94;4946587;28;19923;-79
2023/10/13 00:41:15;;;;;;;;;;;;;;;17.38;100.00;100175.56;4949320;29;19969;-78
2023/10/13 00:44:04;;;;;;;;;;;;;;;17.34;100.00;100177.75;4946585;28;19930;-79
2023/10/13 00:46:33;;;;;;;;;;;;;;;17.38;100.00;100181.75;4944964;28;19922;-79
2023/10/13 00:48:58;;;;;;;;;;;;;;;17.33;100.00;100180.59;4945931;28;20346;-79
2023/10/13 00:51:34;;;;;;;;;;;;;;;17.24;100.00;100177.13;4948475;28;19922;-78
2023/10/13 00:54:13;;;;;;;;;;;;;;;17.17;100.00;100170.81;4964454;28;19922;-78
2023/10/13 00:57:04;;;;;;;;;;;;;;;17.19;100.00;100174.16;4946280;28;20324;-78
2023/10/13 00:59:33;;;;;;;;;;;;;;;17.10;100.00;100175.16;4940535;29;20284;-79
2023/10/13 01:02:25;;;;;;;;;;;;;;;17.11;100.00;100182.16;4942985;28;19949;-79
2023/10/13 01:04:46;;;;;;;;;;;;;;;17.07;100.00;100171.00;4944595;29;19933;-77
2023/10/13 01:07:12;;;;;;;;;;;;;;;17.07;100.00;100170.16;4943775;28;19932;-79
2023/10/13 01:09:42;;;;;;;;;;;;;;;16.99;100.00;100170.16;4944888;29;19926;-79
2023/10/13 01:12:08;;;;;;;;;;;;;;;16.93;100.00;100178.84;4944534;28;20009;-79
2023/10/13 01:14:35;;;;;;;;;;;;;;;16.86;100.00;100177.84;4948869;28;20086;-78
2023/10/13 01:17:01;;;;;;;;;;;;;;;16.66;100.00;100167.53;4944178;29;19965;-79
2023/10/13 01:19:27;;;;;;;;;;;;;;;16.62;100.00;100171.53;4945488;28;19962;-78
2023/10/13 01:22:03;;;;;;;;;;;;;;;16.52;100.00;100165.50;4942859;29;19927;-78
2023/10/13 01:24:34;;;;;;;;;;;;;;;16.40;100.00;100169.50;4944980;28;19923;-78
2023/10/13 01:27:20;;;;;;;;;;;;;;;16.52;100.00;100173.50;4942708;29;20014;-78
2023/10/13 01:29:51;;;;;;;;;;;;;;;16.60;100.00;100162.03;4942172;28;19962;-78
2023/10/13 01:32:18;;;;;;;;;;;;;;;16.61;100.00;100169.84;4946145;29;19922;-78
2023/10/13 01:34:46;;;;;;;;;;;;;;;16.71;100.00;100170.53;4943965;28;20340;-78
2023/10/13 01:37:11;;;;;;;;;;;;;;;16.73;100.00;100173.00;4941663;28;19927;-78
2023/10/13 01:39:37;;;;;;;;;;;;;;;16.72;100.00;100166.88;4943677;29;19934;-78
2023/10/13 01:42:02;;;;;;;;;;;;;;;16.77;100.00;100175.19;4943986;28;20367;-78
2023/10/13 01:44:30;;;;;;;;;;;;;;;16.83;100.00;100172.84;4961175;28;19922;-78
2023/10/13 01:46:59;;;;;;;;;;;;;;;16.85;100.00;100168.22;4944623;28;20362;-78
2023/10/13 01:49:24;;;;;;;;;;;;;;;16.83;100.00;100162.19;4941786;29;20388;-79
2023/10/13 01:51:50;;;;;;;;;;;;;;;16.88;100.00;100165.19;4944113;28;20013;-77
2023/10/13 01:54:15;;;;;;;;;;;;;;;16.91;100.00;100171.00;4940922;28;19925;-79
2023/10/13 01:56:44;;;;;;;;;;;;;;;16.93;100.00;100162.84;4944059;29;20332;-79
2023/10/13 01:59:12;;;;;;;;;;;;;;;16.83;100.00;100162.19;4941766;28;19927;-79
2023/10/13 02:01:38;;;;;;;;;;;;;;;16.78;100.00;100163.53;4942015;29;19948;-77
2023/10/13 02:04:04;;;;;;;;;;;;;;;16.72;100.00;100161.56;4958601;28;20017;-79
2023/10/13 02:06:33;;;;;;;;;;;;;;;16.74;100.00;100162.19;4941085;29;19923;-79
2023/10/13 02:09:05;;;;;;;;;;;;;;;16.74;100.00;100164.84;4944409;28;20001;-79
2023/10/13 02:11:31;;;;;;;;;;;;;;;16.83;100.00;100167.53;4941461;29;20253;-79
2023/10/13 02:13:57;;;;;;;;;;;;;;;16.84;100.00;100163.88;4943742;28;19930;-79
2023/10/13 02:16:25;;;;;;;;;;;;;;;16.85;100.00;100166.34;4943540;28;20650;-79
2023/10/13 02:18:53;;;;;;;;;;;;;;;16.89;100.00;100162.38;4941724;28;19962;-79
2023/10/13 02:21:19;;;;;;;;;;;;;;;16.88;100.00;100165.19;4945044;28;20380;-79
2023/10/13 02:23:45;;;;;;;;;;;;;;;16.95;100.00;100160.84;4956073;28;19942;-79
2023/10/13 02:26:15;;;;;;;;;;;;;;;16.98;100.00;100160.50;4942543;29;20336;-78
2023/10/13 02:28:41;;;;;;;;;;;;;;;17.00;100.00;100156.69;4940685;28;19949;-78
2023/10/13 02:31:07;;;;;;;;;;;;;;;17.02;100.00;100152.00;4942987;29;20344;-78
2023/10/13 02:33:32;;;;;;;;;;;;;;;17.06;100.00;100148.00;4941056;28;19923;-78
2023/10/13 02:36:05;;;;;;;;;;;;;;;17.11;100.00;100155.47;4942044;29;19930;-79
2023/10/13 02:38:42;;;;;;;;;;;;;;;17.10;100.00;100151.97;4943004;28;20367;-79
2023/10/13 02:41:25;;;;;;;;;;;;;;;17.14;100.00;100150.63;4943124;29;19929;-79
2023/10/13 02:43:50;;;;;;;;;;;;;;;17.16;100.00;100153.13;4945717;28;19970;-79
2023/10/13 02:46:16;;;;;;;;;;;;;;;17.16;100.00;100145.97;4959113;28;19965;-79
2023/10/13 02:48:45;;;;;;;;;;;;;;;17.16;100.00;100147.81;4939676;28;19931;-79
2023/10/13 02:51:18;;;;;;;;;;;;;;;17.14;100.00;100147.16;4941631;29;19927;-78
2023/10/13 02:53:49;;;;;;;;;;;;;;;17.08;100.00;100142.50;4939923;28;19923;-78
2023/10/13 02:56:20;;;;;;;;;;;;;;;17.08;100.00;100139.84;4958947;28;19948;-80
2023/10/13 02:59:04;;;;;;;;;;;;;;;17.04;100.00;100141.16;4941031;28;19919;-79
2023/10/13 03:01:33;;;;;;;;;;;;;;;17.07;100.00;100139.00;4942788;28;19923;-80
2023/10/13 03:03:59;;;;;;;;;;;;;;;16.98;100.00;100139.16;4941801;29;20255;-79
2023/10/13 03:06:32;;;;;;;;;;;;;;;16.89;100.00;100134.88;4943652;28;20017;-80
2023/10/13 03:09:15;;;;;;;;;;;;;;;16.88;100.00;100138.53;4941496;29;19919;-80
2023/10/13 03:11:48;;;;;;;;;;;;;;;16.86;100.00;100141.34;4941699;28;19922;-79
2023/10/13 03:14:23;;;;;;;;;;;;;;;16.83;100.00;100130.22;4945760;29;19930;-79
2023/10/13 03:17:14;;;;;;;;;;;;;;;16.78;100.00;100134.22;4940674;29;19923;-80
2023/10/13 03:19:46;;;;;;;;;;;;;;;16.74;100.00;100132.88;4942574;29;19929;-78
2023/10/13 03:22:15;;;;;;;;;;;;;;;16.71;100.00;100132.41;4947249;28;19927;-79
2023/10/13 03:24:47;;;;;;;;;;;;;;;16.64;100.00;100126.06;4941902;28;19942;-79
2023/10/13 03:27:17;;;;;;;;;;;;;;;16.58;100.00;100124.03;4946561;28;21316;-79
2023/10/13 03:29:43;;;;;;;;;;;;;;;16.60;100.00;100133.56;4959400;28;19990;-79
2023/10/13 03:32:12;;;;;;;;;;;;;;;16.45;100.00;100129.88;4962118;28;20434;-79
2023/10/13 03:35:37;;;;;;;;;;;;;;;16.35;100.00;100132.69;4943032;28;20455;-78
2023/10/13 03:37:38;;;;;;;;;;;;;;;16.30;100.00;100136.88;4937775;29;19965;-79
2023/10/13 03:40:06;;;;;;;;;;;;;;;16.30;100.00;100128.88;4940576;29;19954;-78
2023/10/13 03:42:32;;;;;;;;;;;;;;;16.36;100.00;100128.22;4956233;28;20385;-79
2023/10/13 03:44:58;;;;;;;;;;;;;;;16.45;100.00;100132.53;4944919;28;19922;-79
2023/10/13 03:47:32;;;;;;;;;;;;;;;16.53;100.00;100137.88;4943125;28;19950;-79
2023/10/13 03:50:15;;;;;;;;;;;;;;;16.54;100.00;100136.88;4940306;29;20292;-78
2023/10/13 03:52:40;;;;;;;;;;;;;;;16.35;100.00;100134.53;4941764;29;19923;-79
2023/10/13 03:55:07;;;;;;;;;;;;;;;16.44;100.00;100127.34;4941763;28;19941;-79
2023/10/13 03:57:37;;;;;;;;;;;;;;;16.47;100.00;100130.53;4941047;29;19946;-80
2023/10/13 04:00:09;;;;;;;;;;;;;;;16.44;100.00;100130.84;4942004;28;19918;-80
2023/10/13 04:02:37;;;;;;;;;;;;;;;16.36;100.00;100136.19;4942355;29;19931;-80
2023/10/13 04:05:09;;;;;;;;;;;;;;;16.36;100.00;100129.03;4945527;28;20344;-79
2023/10/13 04:11:38;;;;;;;;;;;;;;;16.38;100.00;100137.69;4945749;28;19944;-79
2023/10/13 04:16:01;;;;;;;;;;;;;;;16.55;100.00;100140.38;4948941;28;20037;-79
2023/10/13 04:18:34;;;;;;;;;;;;;;;16.56;100.00;100134.84;4945070;28;19930;-79
2023/10/13 04:21:18;;;;;;;;;;;;;;;16.60;100.00;100130.91;4944410;29;19945;-79
2023/10/13 04:26:37;;;;;;;;;;;;;;;16.74;100.00;100135.53;4943822;29;20061;-79
2023/10/13 04:29:10;;;;;;;;;;;;;;;16.77;100.00;100127.22;4945139;28;20028;-80
2023/10/13 04:31:57;;;;;;;;;;;;;;;16.78;100.00;100128.91;4944354;29;20302;-80
2023/10/13 04:34:28;;;;;;;;;;;;;;;16.79;100.00;100125.22;4943278;29;20669;-80
2023/10/13 04:37:10;;;;;;;;;;;;;;;16.83;100.00;100130.22;4942881;29;19923;-80
2023/10/13 04:39:38;;;;;;;;;;;;;;;16.89;100.00;100129.53;4943942;28;19923;-81
2023/10/13 04:42:13;;;;;;;;;;;;;;;16.92;100.00;100134.50;4965244;28;19923;-78
2023/10/13 04:47:17;;;;;;;;;;;;;;;16.94;100.00;100132.53;4944189;29;19923;-80
2023/10/13 04:54:45;;;;;;;;;;;;;;;16.98;100.00;100139.16;4943439;28;19930;-80
2023/10/13 04:57:32;;;;;;;;;;;;;;;16.90;100.00;100134.72;4942466;28;20383;-81
2023/10/13 05:46:35;;;;;;;;;;;;;;;16.96;100.00;100158.03;4928291;28;19937;-89
2023/10/13 06:29:26;;;;;;;;;;;;;;;17.44;100.00;100194.41;4944085;28;19923;-86
2023/10/13 06:31:52;;;;;;;;;;;;;;;17.49;100.00;100200.06;4947976;28;19937;-87
2023/10/13 06:34:20;;;;;;;;;;;;;;;17.55;100.00;100191.34;4941385;28;19930;-86
2023/10/13 06:36:47;;;;;;;;;;;;;;;17.62;100.00;100201.38;4940669;28;20002;-87
2023/10/13 06:41:56;;;;;;;;;;;;;;;17.72;100.00;100202.03;4944775;28;19934;-86
2023/10/13 06:44:25;;;;;;;;;;;;;;;17.76;100.00;100208.66;4943329;28;19961;-85
2023/10/13 06:46:50;;;;;;;;;;;;;;;17.81;100.00;100208.97;4945051;29;19923;-87
2023/10/13 06:49:18;;;;;;;;;;;;;;;17.83;100.00;100209.66;4942146;28;19930;-83
2023/10/13 06:51:46;;;;;;;;;;;;;;;17.88;100.00;100204.63;4999521;23;19945;-78
2023/10/13 06:54:19;;;;;;;;;;;;;;;17.92;100.00;100219.28;4958497;28;19922;-77
2023/10/13 06:56:45;;;;;;;;;;;;;;;17.95;100.00;100213.59;4960490;28;19989;-77
2023/10/13 06:59:14;;;;;;;;;;;;;;;17.96;100.00;100217.94;4958601;28;19961;-77
2023/10/13 07:01:40;;;;;;;;;;;;;;;18.02;100.00;100224.41;4959715;28;20386;-78
2023/10/13 07:04:13;;;;;;;;;;;;;;;18.07;100.00;100225.56;4958994;28;19922;-78
2023/10/13 07:06:48;;;;;;;;;;;;;;;18.10;100.00;100221.69;4956996;28;19934;-77
2023/10/13 07:12:01;;;;;;;;;;;;;;;18.02;100.00;100225.25;4956026;28;20383;-78
2023/10/13 07:14:27;;;;;;;;;;;;;;;18.06;100.00;100228.41;4953977;28;19957;-79
2023/10/13 07:16:59;;;;;;;;;;;;;;;18.08;100.00;100235.25;4609323;28;10000084;-78
2023/10/13 07:19:27;;;;;;;;;;;;;;;18.15;100.00;100236.19;4955320;28;19922;-78
2023/10/13 07:21:58;;;;;;;;;;;;;;;18.14;100.00;100239.88;4961602;28;19923;-79
2023/10/13 07:24:24;;;;;;;;;;;;;;;18.15;100.00;100246.88;4956351;28;20303;-79
2023/10/13 07:26:57;;;;;;;;;;;;;;;18.04;100.00;100247.25;4958698;28;19944;-78
2023/10/13 07:29:24;;;;;;;;;;;;;;;18.02;100.00;100252.78;4960012;28;20299;-78
2023/10/13 07:31:50;;;;;;;;;;;;;;;17.98;100.00;100242.63;4961124;28;20378;-79
2023/10/13 07:34:31;;;;;;;;;;;;;;;18.07;100.00;100254.94;4956928;28;19922;-78
2023/10/13 07:36:59;;;;;;;;;;;;;;;18.11;100.00;100256.25;4959484;28;20398;-78
2023/10/13 07:39:28;;;;;;;;;;;;;;;18.21;100.00;100256.84;4955479;28;19969;-78
2023/10/13 07:41:54;;;;;;;;;;;;;;;18.30;100.00;100260.34;4958045;28;19929;-77
2023/10/13 07:44:24;;;;;;;;;;;;;;;18.33;100.00;100260.81;4956925;28;20002;-77
2023/10/13 07:46:58;;;;;;;;;;;;;;;18.45;100.00;100257.72;4964940;28;20042;-78
2023/10/13 07:49:30;;;;;;;;;;;;;;;18.55;100.00;100259.22;4961723;28;19965;-79
2023/10/13 07:52:01;;;;;;;;;;;;;;;18.66;100.00;100260.66;4952752;28;19993;-83
2023/10/13 07:54:26;;;;;;;;;;;;;;;18.78;100.00;100267.25;4954305;28;19986;-85
2023/10/13 07:56:54;;;;;;;;;;;;;;;18.86;100.00;100267.16;4955412;28;19926;-84
2023/10/13 07:59:22;;;;;;;;;;;;;;;18.89;100.00;100261.47;4960331;28;20061;-85
2023/10/13 08:01:51;;;;;;;;;;;;;;;18.99;100.00;100264.72;4967489;28;20390;-85
2023/10/13 08:04:28;;;;;;;;;;;;;;;19.10;100.00;100258.94;4952317;28;19989;-85
2023/10/13 08:07:02;;;;;;;;;;;;;;;19.23;100.00;100263.69;4964735;28;19922;-85
2023/10/13 08:09:31;;;;;;;;;;;;;;;19.32;100.00;100259.09;4957199;28;19922;-85
2023/10/13 08:11:57;;;;;;;;;;;;;;;19.43;100.00;100269.38;4962078;28;20398;-84
2023/10/13 08:14:23;;;;;;;;;;;;;;;19.52;100.00;100262.94;4960805;28;19930;-85
2023/10/13 08:16:59;;;;;;;;;;;;;;;19.62;100.00;100276.88;4963264;28;19923;-86
2023/10/13 08:19:31;;;;;;;;;;;;;;;19.72;100.00;100274.78;4951469;28;19958;-84
2023/10/13 08:30:26;;;;;;;;;;;;;;;19.95;100.00;100275.50;4962658;28;19977;-81
2023/10/13 08:32:45;;;;;;;;;;;;;;;19.99;100.00;100271.44;4961243;28;19926;-81
2023/10/13 08:35:22;;;;;;;;;;;;;;;20.06;100.00;100276.03;4963500;28;19926;-81
2023/10/13 08:37:59;;;;;;;;;;;;;;;20.09;100.00;100270.34;4962134;28;19926;-80
2023/10/13 08:43:13;;;;;;;;;;;;;;;20.20;100.00;100280.56;4951559;28;19969;-78
2023/10/13 08:53:27;;;;;;;;;;;;;;;20.51;100.00;100275.78;4959164;28;20013;-80
2023/10/13 09:04:20;;;;;;;;;;;;;;;20.71;100.00;100276.84;4953801;28;19922;-77
2023/10/13 09:06:47;;;;;;;;;;;;;;;20.71;100.00;100266.13;4961501;28;19982;-77
2023/10/13 09:09:34;;;;;;;;;;;;;;;20.78;100.00;100267.03;4963273;28;19922;-77
2023/10/13 09:12:09;;;;;;;;;;;;;;;20.81;100.00;100266.63;4959328;28;19922;-77
2023/10/13 09:14:39;;;;;;;;;;;;;;;20.84;100.00;100266.25;4964079;28;20326;-77
2023/10/13 09:19:56;;;;;;;;;;;;;;;20.93;100.00;100263.44;4953561;28;20013;-78
2023/10/13 09:22:35;;;;;;;;;;;;;;;20.95;100.00;100264.91;4956342;28;19970;-77
2023/10/13 09:25:01;;;;;;;;;;;;;;;20.91;100.00;100260.13;4959486;28;20335;-78
2023/10/13 09:27:27;;;;;;;;;;;;;;;20.94;100.00;100255.19;4961656;28;19976;-78
2023/10/13 09:29:56;;;;;;;;;;;;;;;21.00;100.00;100265.16;4963750;28;19968;-78
2023/10/13 09:32:21;;;;;;;;;;;;;;;21.03;100.00;100250.53;4960852;28;19929;-78
2023/10/13 09:34:51;;;;;;;;;;;;;;;21.04;100.00;100254.84;4957844;28;19922;-78
2023/10/13 09:37:20;;;;;;;;;;;;;;;21.08;100.00;100250.78;4960885;28;20008;-79
2023/10/13 09:39:48;;;;;;;;;;;;;;;21.12;100.00;100254.72;4963158;28;19981;-78
2023/10/13 09:42:15;;;;;;;;;;;;;;;21.16;100.00;100248.81;4959384;28;20363;-78
2023/10/13 09:44:41;;;;;;;;;;;;;;;21.20;100.00;100255.47;4961647;28;19922;-78
2023/10/13 09:47:16;;;;;;;;;;;;;;;21.24;100.00;100247.84;4963015;28;19976;-78
2023/10/13 09:49:49;;;;;;;;;;;;;;;21.31;100.00;100251.41;4962418;28;19922;-78
2023/10/13 09:52:19;;;;;;;;;;;;;;;21.35;100.00;100246.47;4963009;28;20244;-77
2023/10/13 09:54:59;;;;;;;;;;;;;;;21.35;100.00;100252.66;4959908;28;19930;-78
2023/10/13 09:57:28;;;;;;;;;;;;;;;21.37;100.00;100245.25;4964562;28;19945;-79
2023/10/13 10:02:58;;;;;;;;;;;;;;;21.41;100.00;100245.69;4957493;28;20283;-77
2023/10/13 10:05:26;;;;;;;;;;;;;;;21.45;100.00;100247.78;4959752;28;19922;-76
2023/10/13 10:07:56;;;;;;;;;;;;;;;21.48;100.00;100251.94;4954519;28;19981;-78
2023/10/13 10:10:24;;;;;;;;;;;;;;;21.45;100.00;100247.78;4959670;28;19922;-79
2023/10/13 10:12:57;;;;;;;;;;;;;;;21.49;100.00;100242.88;4956539;28;19958;-79
2023/10/13 10:15:35;;;;;;;;;;;;;;;21.53;100.00;100244.13;4961700;28;20334;-79
2023/10/13 10:18:01;;;;;;;;;;;;;;;21.56;100.00;100246.41;4960706;28;19969;-79
2023/10/13 10:20:39;;;;;;;;;;;;;;;21.54;100.00;100241.25;4951670;28;20413;-77
2023/10/13 10:23:09;;;;;;;;;;;;;;;21.58;100.00;100247.03;4960919;28;19923;-77
2023/10/13 10:25:35;;;;;;;;;;;;;;;21.62;100.00;100242.91;4961497;28;20280;-78
2023/10/13 10:28:07;;;;;;;;;;;;;;;21.67;100.00;100240.50;4960058;28;20438;-77
2023/10/13 10:30:33;;;;;;;;;;;;;;;21.74;100.00;100240.50;4962186;28;19929;-77
2023/10/13 10:33:00;;;;;;;;;;;;;;;21.77;100.00;100235.59;4957500;28;19923;-78
2023/10/13 10:35:34;;;;;;;;;;;;;;;21.82;100.00;100238.50;4961912;28;19930;-78
2023/10/13 10:38:15;;;;;;;;;;;;;;;21.86;100.00;100234.38;4962476;28;19984;-78
2023/10/13 10:40:58;;;;;;;;;;;;;;;21.95;100.00;100232.41;4956669;28;19945;-79
2023/10/13 10:43:31;;;;;;;;;;;;;;;22.04;100.00;100225.81;4959758;28;19970;-78
2023/10/13 10:46:01;;;;;;;;;;;;;;;22.11;100.00;100221.28;4959670;28;19977;-78
2023/10/13 10:48:33;;;;;;;;;;;;;;;22.19;100.00;100218.44;4959673;28;19926;-78
2023/10/13 10:51:06;;;;;;;;;;;;;;;22.26;100.00;100213.91;4964182;28;19930;-79
2023/10/13 10:53:43;;;;;;;;;;;;;;;22.35;100.00;100201.94;4960730;28;19923;-79
2023/10/13 10:56:19;;;;;;;;;;;;;;;22.42;100.00;100201.97;4960567;28;19918;-79
2023/10/13 10:58:48;;;;;;;;;;;;;;;22.48;100.00;100195.75;4958647;28;19985;-78
2023/10/13 11:01:21;;;;;;;;;;;;;;;22.55;100.00;100193.91;4958837;28;21417;-78
2023/10/13 11:04:08;;;;;;;;;;;;;;;22.61;100.00;100185.03;4962509;28;20246;-77
2023/10/13 11:06:45;;;;;;;;;;;;;;;22.66;100.00;100187.94;4953720;28;20005;-78
2023/10/13 11:11:57;;;;;;;;;;;;;;;22.80;100.00;100180.69;4959490;28;19926;-78
2023/10/13 11:14:26;;;;;;;;;;;;;;;22.91;100.00;100166.66;4955747;28;20303;-79
2023/10/13 11:16:53;;;;;;;;;;;;;;;22.96;100.00;100172.22;4960442;28;19998;-78
2023/10/13 11:19:20;;;;;;;;;;;;;;;23.10;100.00;100173.84;4959027;28;19949;-78
2023/10/13 11:21:47;;;;;;;;;;;;;;;23.18;100.00;100160.19;4956734;28;20009;-78
2023/10/13 11:24:13;;;;;;;;;;;;;;;23.33;100.00;100161.84;4961218;28;20287;-78
2023/10/13 11:26:51;;;;;;;;;;;;;;;23.45;100.00;100155.56;4960909;28;20005;-77
2023/10/13 11:29:19;;;;;;;;;;;;;;;23.62;100.00;100151.38;4956607;28;19926;-77
2023/10/13 11:31:57;;;;;;;;;;;;;;;23.77;100.00;100148.44;4961119;28;19962;-77
2023/10/13 11:34:23;;;;;;;;;;;;;;;23.85;100.00;100150.91;4956029;28;20391;-77
2023/10/13 11:36:48;;;;;;;;;;;;;;;23.92;100.00;100151.69;4959120;28;19941;-78
2023/10/13 11:39:22;;;;;;;;;;;;;;;24.08;100.00;100145.81;4961051;28;19996;-78
2023/10/13 11:41:56;;;;;;;;;;;;;;;24.26;100.00;100136.19;4959302;28;19973;-78
2023/10/13 11:51:44;;;;;;;;;;;;;;;24.83;100.00;100130.56;4953542;28;19937;-79
2023/10/13 11:54:10;;;;;;;;;;;;;;;24.85;100.00;100131.16;4959480;28;19922;-78
2023/10/13 11:56:38;;;;;;;;;;;;;;;24.97;100.00;100128.59;4960587;28;19926;-78
2023/10/13 11:59:05;;;;;;;;;;;;;;;25.14;100.00;100124.25;4957955;28;20319;-79
2023/10/13 12:12:23;;;;;;;;;;;;;;;25.68;100.00;100099.13;4958550;28;19923;-79
2023/10/13 12:14:55;;;;;;;;;;;;;;;25.61;100.00;100098.41;4957946;28;19933;-79
2023/10/13 12:17:25;;;;;;;;;;;;;;;25.72;100.00;100099.50;4955199;28;19999;-78
2023/10/13 12:19:57;;;;;;;;;;;;;;;25.79;100.00;100088.59;4962435;28;19922;-79
2023/10/13 12:22:28;;;;;;;;;;;;;;;25.89;100.00;100083.47;4954985;28;20382;-79
2023/10/13 12:24:54;;;;;;;;;;;;;;;26.01;97.09;100082.44;4962305;28;19973;-76
2023/10/13 12:27:20;;;;;;;;;;;;;;;26.15;99.46;100077.69;4958644;28;19969;-78
2023/10/13 12:29:48;;;;;;;;;;;;;;;26.09;94.57;100084.00;4957132;28;19961;-80
2023/10/13 12:32:20;;;;;;;;;;;;;;;26.06;96.31;100079.06;4960093;28;19949;-78
2023/10/13 12:51:07;;;;;;;;;;;;;;;24.75;99.12;100065.22;4960291;28;19972;-78
2023/10/13 12:53:33;;;;;;;;;;;;;;;24.63;98.05;100061.59;4957837;28;19923;-77
2023/10/13 12:55:58;;;;;;;;;;;;;;;24.57;99.15;100057.06;4960705;28;19944;-78
2023/10/13 12:58:26;;;;;;;;;;;;;;;24.53;100.00;100054.00;4962229;28;19933;-78
2023/10/13 13:00:59;;;;;;;;;;;;;;;24.62;100.00;100050.00;4960622;28;20570;-77
2023/10/13 13:03:29;;;;;;;;;;;;;;;24.90;99.66;100048.72;4958374;28;19929;-78
2023/10/13 13:05:55;;;;;;;;;;;;;;;25.21;98.49;100043.97;4957488;28;20012;-77
2023/10/13 13:08:21;;;;;;;;;;;;;;;25.44;97.34;100040.59;4955973;28;19928;-80
2023/10/13 13:10:48;;;;;;;;;;;;;;;25.44;98.33;100037.06;4964184;28;20335;-78
2023/10/13 13:13:13;;;;;;;;;;;;;;;25.50;98.97;100039.69;4962690;28;20256;-77
2023/10/13 13:15:39;;;;;;;;;;;;;;;25.54;96.90;100034.63;4955757;28;20017;-77
2023/10/13 13:18:11;;;;;;;;;;;;;;;25.51;98.50;100033.19;4963884;28;19929;-79
2023/10/13 13:20:40;;;;;;;;;;;;;;;25.49;98.33;100024.53;4959660;28;19926;-79
2023/10/13 13:23:05;;;;;;;;;;;;;;;25.46;99.26;100030.38;4962377;28;20301;-77
2023/10/13 13:25:32;;;;;;;;;;;;;;;25.61;99.44;100016.50;4964083;28;19929;-79
2023/10/13 13:27:58;;;;;;;;;;;;;;;25.85;97.69;100028.22;4959801;28;20327;-77
2023/10/13 13:30:33;;;;;;;;;;;;;;;26.05;97.20;100012.50;4961178;28;19945;-76
2023/10/13 13:33:03;;;;;;;;;;;;;;;26.26;94.98;100011.97;4958715;28;19923;-78
2023/10/13 13:35:34;;;;;;;;;;;;;;;26.31;94.06;100009.41;4974724;28;19923;-78
2023/10/13 13:38:09;;;;;;;;;;;;;;;26.41;94.42;100006.94;4984637;28;20001;-78
2023/10/13 13:40:36;;;;;;;;;;;;;;;26.44;92.92;100003.75;4978256;28;19930;-79
2023/10/13 13:43:03;;;;;;;;;;;;;;;26.44;90.23;100001.06;4968768;28;19926;-78
2023/10/13 13:45:28;;;;;;;;;;;;;;;26.39;89.95;99997.41;4961850;28;19997;-78
2023/10/13 13:47:53;;;;;;;;;;;;;;;26.25;90.51;100002.22;4961467;28;19926;-77
2023/10/13 13:50:28;;;;;;;;;;;;;;;26.17;91.00;100007.94;4961910;28;19925;-78
2023/10/13 13:52:56;;;;;;;;;;;;;;;26.02;89.42;99994.88;4953524;28;19922;-78
2023/10/13 13:55:21;;;;;;;;;;;;;;;25.90;91.51;99993.19;4963209;28;19923;-78
2023/10/13 13:57:50;;;;;;;;;;;;;;;25.71;90.20;99989.72;4963506;28;19937;-78
2023/10/13 14:00:30;;;;;;;;;;;;;;;25.59;91.57;99987.00;4961822;28;19930;-78
2023/10/13 14:02:55;;;;;;;;;;;;;;;25.43;92.54;99984.91;4961977;28;19998;-78
2023/10/13 14:05:20;;;;;;;;;;;;;;;25.31;94.17;99984.03;4962894;28;20410;-78
2023/10/13 14:07:48;;;;;;;;;;;;;;;25.23;95.41;99981.63;4961070;28;19933;-78
2023/10/13 14:10:31;;;;;;;;;;;;;;;25.17;96.58;99980.66;4959115;28;20368;-79
2023/10/13 14:13:06;;;;;;;;;;;;;;;25.10;96.67;99976.38;4960584;28;20422;-77
2023/10/13 14:15:40;;;;;;;;;;;;;;;24.98;96.86;99973.63;4960265;28;19930;-77
2023/10/13 14:18:07;;;;;;;;;;;;;;;24.96;97.24;99974.91;4961899;28;20417;-78
2023/10/13 14:20:32;;;;;;;;;;;;;;;24.94;98.64;99971.63;4960542;28;19922;-78
2023/10/13 14:22:57;;;;;;;;;;;;;;;24.90;99.55;99967.72;4960009;28;19929;-79
2023/10/13 14:25:28;;;;;;;;;;;;;;;24.82;99.85;99966.94;4963043;28;19922;-78
2023/10/13 14:27:53;;;;;;;;;;;;;;;24.76;100.00;99962.44;4952727;28;20566;-79
2023/10/13 14:30:19;;;;;;;;;;;;;;;24.74;100.00;99964.53;4961236;28;19918;-79
2023/10/13 14:32:45;;;;;;;;;;;;;;;24.71;100.00;99966.88;4959802;28;19930;-79
2023/10/13 14:35:16;;;;;;;;;;;;;;;24.69;100.00;99961.69;4957923;28;19988;-78
2023/10/13 14:37:41;;;;;;;;;;;;;;;24.70;100.00;99959.81;4963085;28;19978;-78
2023/10/13 14:40:12;;;;;;;;;;;;;;;24.71;100.00;99956.91;4962170;28;19921;-78
2023/10/13 14:42:40;;;;;;;;;;;;;;;24.73;100.00;99959.38;4958004;28;19930;-78
2023/10/13 14:45:12;;;;;;;;;;;;;;;24.73;100.00;99957.50;4961903;28;19965;-78
2023/10/13 14:47:39;;;;;;;;;;;;;;;24.75;100.00;99951.88;4961623;28;20457;-78
2023/10/13 14:50:05;;;;;;;;;;;;;;;24.74;100.00;99951.03;4959317;28;19922;-79
2023/10/13 14:52:31;;;;;;;;;;;;;;;24.74;100.00;99956.44;4950659;28;20014;-76
2023/10/13 14:54:59;;;;;;;;;;;;;;;24.70;100.00;99949.84;4957591;28;19966;-77
2023/10/13 14:57:25;;;;;;;;;;;;;;;24.67;100.00;99950.31;4962829;28;20371;-78
2023/10/13 14:59:54;;;;;;;;;;;;;;;24.64;100.00;99939.94;4959703;28;19923;-77
2023/10/13 15:02:20;;;;;;;;;;;;;;;24.61;100.00;99945.81;4962611;28;19976;-77
2023/10/13 15:04:48;;;;;;;;;;;;;;;24.57;100.00;99943.75;4961091;28;20319;-78
2023/10/13 15:07:17;;;;;;;;;;;;;;;24.53;100.00;99948.78;4957925;28;20287;-79
2023/10/13 15:09:42;;;;;;;;;;;;;;;24.52;100.00;99941.75;4957446;28;19945;-78
2023/10/13 15:12:11;;;;;;;;;;;;;;;24.46;100.00;99942.63;4960873;28;20375;-77
2023/10/13 15:14:37;;;;;;;;;;;;;;;24.43;100.00;99940.41;4959442;28;20378;-78
2023/10/13 15:17:06;;;;;;;;;;;;;;;24.38;100.00;99942.94;4958934;28;19989;-78
2023/10/13 15:19:35;;;;;;;;;;;;;;;24.35;100.00;99940.69;4963163;28;19922;-78
2023/10/13 15:22:01;;;;;;;;;;;;;;;24.31;100.00;99940.31;4958854;28;19929;-78
2023/10/13 15:24:27;;;;;;;;;;;;;;;24.30;100.00;99943.22;4960643;28;19998;-78
2023/10/13 15:26:57;;;;;;;;;;;;;;;24.29;100.00;99936.16;4959168;28;19922;-77
2023/10/13 15:29:26;;;;;;;;;;;;;;;24.28;100.00;99934.50;4954047;28;20379;-78
2023/10/13 15:34:27;;;;;;;;;;;;;;;24.24;100.00;99933.31;4949170;28;19923;-77
2023/10/13 15:36:54;;;;;;;;;;;;;;;24.24;100.00;99927.94;4960655;28;19930;-78
2023/10/13 15:39:23;;;;;;;;;;;;;;;24.20;100.00;99932.94;4961838;28;20358;-79
2023/10/13 15:41:52;;;;;;;;;;;;;;;24.17;100.00;99927.13;4960050;28;20559;-78
2023/10/13 15:44:19;;;;;;;;;;;;;;;24.16;100.00;99925.47;4963067;28;20311;-79
2023/10/13 15:46:49;;;;;;;;;;;;;;;24.09;100.00;99931.75;4959624;28;20118;-78